createdAt,value
2022-08-10T00:00:04.074Z,7.07
2022-08-10T00:03:11.096Z,6.33
2022-08-10T00:06:18.236Z,5.00
2022-08-10T00:09:24.932Z,7.37
2022-08-10T00:12:54.553Z,5.37
2022-08-10T00:16:01.485Z,6.33
2022-08-10T00:19:09.949Z,4.40
2022-08-10T00:22:16.926Z,4.47
2022-08-10T00:25:24.146Z,4.27
2022-08-10T00:28:30.408Z,4.23
2022-08-10T00:31:58.615Z,4.77
2022-08-10T00:35:08.229Z,7.00
2022-08-10T00:38:15.560Z,5.67
2022-08-10T00:41:21.683Z,6.53
2022-08-10T00:44:31.085Z,5.67
2022-08-10T00:47:40.045Z,7.03
2022-08-10T00:50:47.550Z,5.27
2022-08-10T00:53:53.801Z,6.80
2022-08-10T00:57:17.384Z,5.17
2022-08-10T01:00:24.603Z,5.23
2022-08-10T01:04:36.687Z,5.60
2022-08-10T01:07:15.766Z,6.27
2022-08-10T01:10:32.202Z,4.73
2022-08-10T01:13:44.452Z,5.80
2022-08-10T01:16:55.414Z,6.47
2022-08-10T01:20:09.966Z,6.90
2022-08-10T01:23:57.124Z,6.10
2022-08-10T01:27:19.101Z,4.83
2022-08-10T01:30:37.997Z,5.67
2022-08-10T01:33:59.163Z,7.30
2022-08-10T01:37:16.814Z,4.57
2022-08-10T01:40:28.674Z,6.63
2022-08-10T01:43:38.530Z,4.97
2022-08-10T01:46:56.642Z,4.97
2022-08-10T01:50:05.042Z,5.07
2022-08-10T01:53:20.575Z,4.13
2022-08-10T01:56:29.444Z,5.00
2022-08-10T01:59:38.616Z,5.00
2022-08-10T02:02:50.376Z,6.37
2022-08-10T02:05:59.332Z,6.03
2022-08-10T02:09:09.300Z,6.20
2022-08-10T02:12:19.112Z,6.60
2022-08-10T02:15:28.167Z,4.87
2022-08-10T02:18:39.438Z,5.47
2022-08-10T02:22:37.598Z,4.97
2022-08-10T02:25:41.099Z,6.27
2022-08-10T02:28:45.916Z,5.50
2022-08-10T02:31:52.436Z,5.13
2022-08-10T02:35:06.286Z,6.20
2022-08-10T02:38:14.580Z,5.10
2022-08-10T02:42:18.457Z,7.80
2022-08-10T02:45:20.482Z,5.47
2022-08-10T02:48:32.994Z,7.20
2022-08-10T02:52:06.855Z,5.17
2022-08-10T02:55:27.260Z,5.10
2022-08-10T02:58:48.266Z,4.97
2022-08-10T03:01:59.483Z,5.80
2022-08-10T03:05:12.701Z,5.47
2022-08-10T03:08:25.774Z,5.63
2022-08-10T03:12:35.594Z,5.07
2022-08-10T03:15:03.362Z,6.27
2022-08-10T03:18:10.407Z,6.40
2022-08-10T03:21:20.460Z,7.20
2022-08-10T03:24:33.045Z,7.67
2022-08-10T03:27:41.522Z,6.47
2022-08-10T03:30:48.079Z,6.20
2022-08-10T03:33:56.572Z,10.37
2022-08-10T03:37:03.147Z,7.10
2022-08-10T03:40:14.241Z,5.70
2022-08-10T03:43:23.284Z,5.87
2022-08-10T03:46:32.854Z,6.23
2022-08-10T03:49:41.829Z,7.00
2022-08-10T03:52:49.168Z,7.40
2022-08-10T03:56:29.020Z,7.03
2022-08-10T03:59:26.868Z,6.20
2022-08-10T04:02:44.804Z,8.87
2022-08-10T04:05:55.522Z,5.73
2022-08-10T04:09:03.470Z,7.27
2022-08-10T04:12:13.852Z,5.53
2022-08-10T04:15:20.033Z,5.90
2022-08-10T04:18:27.287Z,8.33
2022-08-10T04:21:38.916Z,6.13
2022-08-10T04:24:50.247Z,6.20
2022-08-10T04:27:59.860Z,6.90
2022-08-10T04:31:11.932Z,8.70
2022-08-10T04:34:20.798Z,10.00
2022-08-10T04:37:29.107Z,6.67
2022-08-10T04:40:35.340Z,6.60
2022-08-10T04:43:45.848Z,6.37
2022-08-10T04:46:55.711Z,8.07
2022-08-10T04:50:08.462Z,8.03
2022-08-10T04:53:16.233Z,10.60
2022-08-10T04:56:31.363Z,8.23
2022-08-10T04:59:40.985Z,8.37
2022-08-10T05:02:48.238Z,7.60
2022-08-10T05:05:54.319Z,8.37
2022-08-10T05:09:03.071Z,9.13
2022-08-10T05:12:12.288Z,9.07
2022-08-10T05:15:24.133Z,11.40
2022-08-10T05:18:30.278Z,13.20
2022-08-10T05:22:03.208Z,8.87
2022-08-10T05:25:03.732Z,19.97
2022-08-10T05:28:11.200Z,8.93
2022-08-10T05:31:23.474Z,8.73
2022-08-10T05:34:31.264Z,11.00
2022-08-10T05:38:09.149Z,10.40
2022-08-10T05:41:06.592Z,9.47
2022-08-10T05:44:13.099Z,9.03
2022-08-10T05:47:22.950Z,12.93
2022-08-10T05:50:31.309Z,9.87
2022-08-10T05:54:03.063Z,10.13
2022-08-10T05:57:06.481Z,8.57
2022-08-10T06:00:36.956Z,11.67
2022-08-10T06:03:53.897Z,10.67
2022-08-10T06:07:03.129Z,7.20
2022-08-10T06:10:12.440Z,7.73
2022-08-10T06:13:59.459Z,8.63
2022-08-10T06:17:04.372Z,9.80
2022-08-10T06:20:15.314Z,7.30
2022-08-10T06:23:22.413Z,7.33
2022-08-10T06:26:29.553Z,10.27
2022-08-10T06:29:37.306Z,8.63
2022-08-10T06:32:45.623Z,8.60
2022-08-10T06:35:58.429Z,11.23
2022-08-10T06:39:31.857Z,12.53
2022-08-10T06:42:35.798Z,6.63
2022-08-10T06:46:07.592Z,7.07
2022-08-10T06:49:15.232Z,6.90
2022-08-10T06:52:26.574Z,8.60
2022-08-10T06:55:49.764Z,6.23
2022-08-10T06:59:01.024Z,8.73
2022-08-10T07:02:11.022Z,7.50
2022-08-10T07:05:23.445Z,11.30
2022-08-10T07:08:37.071Z,9.53
2022-08-10T07:11:47.085Z,11.30
2022-08-10T07:14:54.901Z,11.70
2022-08-10T07:18:04.350Z,13.03
2022-08-10T07:21:12.509Z,15.63
2022-08-10T07:24:23.654Z,11.93
2022-08-10T07:27:58.119Z,13.33
2022-08-10T07:31:00.086Z,9.50
2022-08-10T07:34:09.785Z,10.63
2022-08-10T07:37:19.336Z,10.43
2022-08-10T07:40:28.858Z,8.87
2022-08-10T07:43:39.224Z,9.70
2022-08-10T07:46:50.696Z,6.07
2022-08-10T07:50:00.180Z,5.97
2022-08-10T07:53:10.577Z,6.07
2022-08-10T07:56:47.252Z,3.77
2022-08-10T07:59:51.669Z,3.53
2022-08-10T08:03:00.241Z,3.50
2022-08-10T08:06:12.036Z,3.10
2022-08-10T08:09:21.845Z,2.73
2022-08-10T08:12:36.776Z,3.73
2022-08-10T08:16:19.202Z,4.73
2022-08-10T08:19:37.145Z,3.87
2022-08-10T08:24:15.035Z,3.80
2022-08-10T08:26:10.001Z,2.60
2022-08-10T08:29:22.601Z,3.30
2022-08-10T08:32:30.757Z,5.67
2022-08-10T08:35:38.204Z,2.70
2022-08-10T08:38:45.628Z,3.17
2022-08-10T08:42:07.647Z,2.47
2022-08-10T08:45:30.043Z,5.53
2022-08-10T08:49:00.104Z,3.73
2022-08-10T08:52:22.258Z,3.40
2022-08-10T08:56:03.842Z,3.30
2022-08-10T08:59:28.462Z,2.87
2022-08-10T09:02:55.080Z,6.10
2022-08-10T09:06:18.614Z,3.33
2022-08-10T09:09:51.263Z,3.10
2022-08-10T09:13:06.157Z,2.60
2022-08-10T09:16:26.375Z,2.80
2022-08-10T09:19:44.709Z,4.95
2022-08-10T09:23:00.725Z,3.20
2022-08-10T09:26:15.780Z,2.60
2022-08-10T09:29:30.713Z,2.90
2022-08-10T09:36:19.688Z,3.40
2022-08-10T09:36:33.043Z,4.38
2022-08-10T09:40:12.661Z,2.80
2022-08-10T09:43:26.041Z,2.67
2022-08-10T09:46:45.597Z,2.40
2022-08-10T09:50:10.679Z,3.03
2022-08-10T09:53:25.196Z,3.97
2022-08-10T09:56:39.517Z,6.00
2022-08-10T10:00:01.367Z,5.18
2022-08-10T10:03:21.527Z,2.70
2022-08-10T10:06:38.971Z,3.95
2022-08-10T10:09:58.460Z,4.20
2022-08-10T10:13:10.937Z,2.20
2022-08-10T10:16:56.635Z,3.08
2022-08-10T10:20:12.804Z,2.70
2022-08-10T10:23:29.699Z,3.28
2022-08-10T10:26:45.898Z,2.92
2022-08-10T10:29:59.500Z,5.32
2022-08-10T10:33:15.887Z,3.88
2022-08-10T10:36:32.801Z,5.82
2022-08-10T10:39:43.884Z,4.65
2022-08-10T10:43:06.423Z,2.60
2022-08-10T10:46:26.182Z,2.50
2022-08-10T10:49:47.378Z,3.00
2022-08-10T10:53:06.496Z,4.05
2022-08-10T10:56:21.457Z,4.43
2022-08-10T10:59:54.985Z,2.33
2022-08-10T11:03:16.953Z,4.40
2022-08-10T11:06:40.173Z,2.38
2022-08-10T11:10:03.924Z,3.58
2022-08-10T11:14:26.908Z,3.30
2022-08-10T11:17:12.627Z,4.82
2022-08-10T11:20:25.654Z,2.42
2022-08-10T11:23:40.240Z,2.40
2022-08-10T11:26:52.157Z,3.90
2022-08-10T11:30:07.021Z,3.95
2022-08-10T11:33:32.634Z,3.05
2022-08-10T11:36:51.139Z,3.70
2022-08-10T11:40:03.850Z,1.88
2022-08-10T11:43:21.162Z,4.65
2022-08-10T11:46:33.965Z,2.20
2022-08-10T11:49:56.529Z,2.50
2022-08-10T11:53:11.757Z,2.92
2022-08-10T11:56:28.897Z,3.25
2022-08-10T11:59:58.229Z,3.10
2022-08-10T12:03:10.689Z,2.20
2022-08-10T12:06:53.774Z,2.28
2022-08-10T12:10:08.933Z,3.85
2022-08-10T12:13:24.816Z,2.45
2022-08-10T12:16:33.222Z,3.05
2022-08-10T12:20:01.358Z,2.30
2022-08-10T12:23:20.531Z,7.60
2022-08-10T12:26:31.467Z,5.07
2022-08-10T12:29:46.186Z,2.03
2022-08-10T12:32:57.979Z,2.08
2022-08-10T12:36:18.441Z,2.35
2022-08-10T12:39:31.192Z,2.28
2022-08-10T12:42:45.862Z,2.35
2022-08-10T12:46:19.051Z,2.67
2022-08-10T12:49:33.663Z,2.75
2022-08-10T12:52:45.706Z,3.13
2022-08-10T12:55:55.864Z,2.03
2022-08-10T12:59:03.835Z,1.92
2022-08-10T13:02:17.585Z,6.90
2022-08-10T13:05:24.808Z,2.85
2022-08-10T13:08:51.736Z,2.55
2022-08-10T13:12:44.944Z,2.53
2022-08-10T13:15:48.475Z,4.28
2022-08-10T13:18:58.088Z,3.85
2022-08-10T13:22:07.116Z,3.97
2022-08-10T13:25:14.660Z,2.38
2022-08-10T13:28:36.602Z,3.25
2022-08-10T13:32:09.191Z,3.50
2022-08-10T13:35:17.870Z,3.03
2022-08-10T13:38:25.543Z,2.58
2022-08-10T13:41:35.757Z,2.03
2022-08-10T13:44:47.083Z,1.58
2022-08-10T13:47:57.603Z,1.70
2022-08-10T13:51:06.601Z,1.63
2022-08-10T13:54:15.842Z,3.95
2022-08-10T13:57:24.128Z,1.90
2022-08-10T14:00:39.131Z,3.15
2022-08-10T14:03:47.399Z,1.80
2022-08-10T14:06:57.302Z,2.33
2022-08-10T14:10:08.062Z,4.40
2022-08-10T14:13:17.909Z,3.08
2022-08-10T14:16:27.736Z,1.85
2022-08-10T14:19:43.466Z,3.22
2022-08-10T14:22:50.016Z,4.55
2022-08-10T14:26:07.999Z,1.95
2022-08-10T14:29:19.595Z,1.80
2022-08-10T14:32:33.835Z,2.33
2022-08-10T14:36:20.655Z,2.03
2022-08-10T14:39:15.137Z,4.25
2022-08-10T14:42:28.636Z,1.70
2022-08-10T14:45:37.869Z,2.95
2022-08-10T14:48:49.985Z,1.58
2022-08-10T14:52:04.487Z,1.95
2022-08-10T14:55:19.414Z,1.58
2022-08-10T14:58:29.226Z,1.98
2022-08-10T15:02:38.788Z,1.63
2022-08-10T15:05:09.130Z,1.77
2022-08-10T15:08:17.664Z,2.13
2022-08-10T15:12:11.848Z,2.72
2022-08-10T15:14:53.330Z,3.63
2022-08-10T15:18:03.054Z,1.60
2022-08-10T15:21:17.055Z,1.45
2022-08-10T15:24:37.665Z,1.77
2022-08-10T15:27:54.677Z,2.45
2022-08-10T15:31:03.557Z,1.60
2022-08-10T15:34:28.856Z,3.72
2022-08-10T15:37:41.980Z,4.07
2022-08-10T15:40:54.317Z,1.50
2022-08-10T15:44:01.191Z,1.40
2022-08-10T15:47:12.121Z,1.40
2022-08-10T15:50:28.401Z,2.55
2022-08-10T15:53:49.825Z,2.58
2022-08-10T15:57:03.566Z,1.60
2022-08-10T16:00:13.268Z,3.30
2022-08-10T16:03:26.496Z,2.65
2022-08-10T16:06:37.095Z,3.28
2022-08-10T16:10:23.197Z,1.95
2022-08-10T16:13:50.474Z,3.05
2022-08-10T16:16:54.269Z,1.55
2022-08-10T16:20:03.594Z,2.28
2022-08-10T16:23:14.439Z,2.25
2022-08-10T16:26:30.983Z,1.67
2022-08-10T16:29:54.492Z,1.42
2022-08-10T16:33:05.516Z,2.58
2022-08-10T16:36:19.578Z,1.52
2022-08-10T16:39:58.916Z,1.40
2022-08-10T16:43:00.791Z,1.63
2022-08-10T16:46:13.273Z,1.42
2022-08-10T16:49:22.798Z,2.80
2022-08-10T16:52:30.936Z,2.97
2022-08-10T16:55:49.836Z,1.70
2022-08-10T16:59:01.061Z,3.33
2022-08-10T17:02:10.427Z,1.45
2022-08-10T17:06:01.540Z,1.75
2022-08-10T17:08:52.791Z,1.42
2022-08-10T17:12:01.376Z,5.88
2022-08-10T17:15:12.967Z,1.60
2022-08-10T17:18:27.801Z,3.65
2022-08-10T17:21:51.051Z,2.08
2022-08-10T17:25:03.284Z,2.03
2022-08-10T17:28:12.030Z,1.67
2022-08-10T17:31:53.509Z,3.90
2022-08-10T17:35:01.278Z,2.00
2022-08-10T17:38:12.305Z,2.35
2022-08-10T17:41:24.578Z,1.60
2022-08-10T17:44:32.402Z,2.10
2022-08-10T17:47:50.358Z,2.28
2022-08-10T17:50:57.978Z,2.53
2022-08-10T17:54:10.602Z,2.13
2022-08-10T17:57:21.521Z,2.00
2022-08-10T18:00:29.098Z,4.28
2022-08-10T18:03:45.247Z,1.60
2022-08-10T18:06:56.538Z,1.90
2022-08-10T18:10:04.371Z,3.58
2022-08-10T18:13:12.613Z,2.23
2022-08-10T18:16:27.071Z,3.47
2022-08-10T18:19:41.345Z,6.13
2022-08-10T18:22:49.534Z,4.33
2022-08-10T18:26:03.137Z,3.27
2022-08-10T18:29:13.527Z,2.67
2022-08-10T18:32:27.994Z,3.30
2022-08-10T18:35:37.565Z,2.20
2022-08-10T18:38:49.699Z,3.53
2022-08-10T18:42:05.583Z,1.90
2022-08-10T18:45:15.531Z,4.60
2022-08-10T18:48:36.458Z,3.23
2022-08-10T18:51:49.433Z,2.80
2022-08-10T18:55:03.061Z,4.60
2022-08-10T18:58:36.672Z,3.97
2022-08-10T19:02:10.175Z,3.60
2022-08-10T19:05:32.171Z,6.60
2022-08-10T19:08:57.942Z,4.63
2022-08-10T19:12:30.459Z,5.40
2022-08-10T19:15:45.842Z,2.70
2022-08-10T19:19:22.407Z,4.73
2022-08-10T19:22:32.183Z,4.60
2022-08-10T19:26:42.686Z,8.13
2022-08-10T19:30:08.086Z,3.00
2022-08-10T19:33:18.202Z,3.17
2022-08-10T19:36:32.776Z,4.63
2022-08-10T19:39:51.075Z,3.73
2022-08-10T19:43:09.203Z,5.87
2022-08-10T19:46:28.264Z,5.10
2022-08-10T19:49:42.606Z,5.77
2022-08-10T19:53:06.157Z,3.00
2022-08-10T19:56:34.017Z,2.73
2022-08-10T20:00:15.741Z,4.97
2022-08-10T20:03:32.101Z,4.47
2022-08-10T20:06:46.444Z,5.17
2022-08-10T20:10:00.329Z,4.13
2022-08-10T20:13:24.461Z,2.80
2022-08-10T20:16:37.941Z,3.53
2022-08-10T20:19:55.241Z,2.17
2022-08-10T20:23:08.518Z,4.10
2022-08-10T20:26:21.123Z,3.20
2022-08-10T20:29:57.449Z,6.57
2022-08-10T20:33:15.328Z,3.20
2022-08-10T20:36:28.601Z,4.47
2022-08-10T20:39:45.167Z,4.40
2022-08-10T20:43:03.370Z,2.87
2022-08-10T20:46:17.013Z,2.70
2022-08-10T20:49:34.642Z,3.30
2022-08-10T20:52:43.523Z,2.20
2022-08-10T20:55:55.294Z,3.50
2022-08-10T20:59:37.240Z,3.77
2022-08-10T21:03:20.957Z,4.10
2022-08-10T21:06:57.571Z,3.73
2022-08-10T21:10:19.044Z,3.00
2022-08-10T21:13:46.252Z,4.47
2022-08-10T21:17:16.052Z,6.80
2022-08-10T21:20:47.181Z,2.33
2022-08-10T21:24:01.291Z,2.90
2022-08-10T21:27:22.508Z,2.80
2022-08-10T21:30:34.430Z,4.43
2022-08-10T21:33:45.124Z,5.10
2022-08-10T21:37:00.154Z,3.73
2022-08-10T21:40:35.739Z,5.30
2022-08-10T21:44:08.045Z,2.80
2022-08-10T21:48:04.713Z,3.30
2022-08-10T21:52:01.417Z,2.67
2022-08-10T21:55:56.294Z,3.73
2022-08-10T21:59:18.910Z,4.53
2022-08-10T22:02:50.058Z,4.23
2022-08-10T22:06:15.494Z,3.20
2022-08-10T22:09:42.591Z,4.80
2022-08-10T22:13:08.379Z,3.67
2022-08-10T22:16:46.501Z,5.50
2022-08-10T22:20:19.142Z,3.47
2022-08-10T22:24:16.521Z,3.87
2022-08-10T22:27:48.239Z,3.30
2022-08-10T22:31:32.351Z,4.73
2022-08-10T22:35:22.595Z,3.80
2022-08-10T22:39:03.411Z,3.57
2022-08-10T22:42:57.883Z,5.17
2022-08-10T22:46:31.158Z,2.77
2022-08-10T22:49:34.984Z,3.73
2022-08-10T22:53:03.199Z,3.60
2022-08-10T22:56:28.598Z,4.30
2022-08-10T22:59:36.263Z,3.13
2022-08-10T23:02:43.025Z,2.37
2022-08-10T23:05:58.221Z,2.67
2022-08-10T23:09:09.931Z,3.10
2022-08-10T23:12:21.445Z,4.40
2022-08-10T23:15:47.016Z,3.50
2022-08-10T23:19:10.005Z,3.87
2022-08-10T23:22:18.177Z,3.43
2022-08-10T23:25:32.942Z,3.27
2022-08-10T23:29:05.210Z,2.70
2022-08-10T23:32:11.430Z,3.00
2022-08-10T23:36:30.465Z,3.83
2022-08-10T23:38:57.328Z,4.23
2022-08-10T23:42:23.189Z,3.87
2022-08-10T23:45:53.834Z,2.87
2022-08-10T23:49:03.025Z,4.20
2022-08-10T23:52:15.335Z,4.17
2022-08-10T23:55:26.762Z,2.93
2022-08-10T23:58:44.666Z,3.57
